createdAt,value
2023-05-04T00:02:03.542Z,6.30
2023-05-04T00:04:30.152Z,5.63
2023-05-04T00:06:56.681Z,6.45
2023-05-04T00:09:23.226Z,6.43
2023-05-04T00:11:49.786Z,5.80
2023-05-04T00:14:16.384Z,6.15
2023-05-04T00:16:44.145Z,7.15
2023-05-04T00:19:10.991Z,6.10
2023-05-04T00:21:37.498Z,6.85
2023-05-04T00:24:04.254Z,6.13
2023-05-04T00:26:30.822Z,6.63
2023-05-04T00:28:57.419Z,6.53
2023-05-04T00:31:24.003Z,6.88
2023-05-04T00:33:50.621Z,6.63
2023-05-04T00:36:17.407Z,6.97
2023-05-04T00:38:51.362Z,6.63
2023-05-04T00:41:18.907Z,7.32
2023-05-04T00:43:45.766Z,6.75
2023-05-04T00:46:13.596Z,7.10
2023-05-04T00:48:45.234Z,7.50
2023-05-04T00:51:13.317Z,6.97
2023-05-04T00:53:40.148Z,7.82
2023-05-04T00:56:07.101Z,7.75
2023-05-04T00:58:34.190Z,6.95
2023-05-04T01:01:01.525Z,7.38
2023-05-04T01:03:28.681Z,7.38
2023-05-04T01:06:13.277Z,7.32
2023-05-04T01:08:43.590Z,7.07
2023-05-04T01:11:13.517Z,6.85
2023-05-04T01:13:40.223Z,6.72
2023-05-04T01:16:06.947Z,8.07
2023-05-04T01:18:33.470Z,7.93
2023-05-04T01:21:00.038Z,7.82
2023-05-04T01:23:27.417Z,7.18
2023-05-04T01:26:15.752Z,7.47
2023-05-04T01:28:47.618Z,7.53
2023-05-04T01:31:17.007Z,8.05
2023-05-04T01:33:44.778Z,7.00
2023-05-04T01:36:11.569Z,7.18
2023-05-04T01:38:38.085Z,7.07
2023-05-04T01:41:04.749Z,8.70
2023-05-04T01:43:31.283Z,7.07
2023-05-04T01:45:57.854Z,7.97
2023-05-04T01:48:24.398Z,7.00
2023-05-04T01:50:50.877Z,7.53
2023-05-04T01:53:17.394Z,7.82
2023-05-04T01:55:43.892Z,7.63
2023-05-04T01:58:10.417Z,7.63
2023-05-04T02:00:37.137Z,7.63
2023-05-04T02:03:03.800Z,7.47
2023-05-04T02:05:30.402Z,7.70
2023-05-04T02:07:56.984Z,7.80
2023-05-04T02:10:23.591Z,7.22
2023-05-04T02:12:50.556Z,7.70
2023-05-04T02:15:17.153Z,8.38
2023-05-04T02:17:43.849Z,7.72
2023-05-04T02:20:10.794Z,7.55
2023-05-04T02:22:37.281Z,7.85
2023-05-04T02:25:04.227Z,7.63
2023-05-04T02:27:30.896Z,7.85
2023-05-04T02:30:00.542Z,7.88
2023-05-04T02:32:27.209Z,8.05
2023-05-04T02:34:53.766Z,7.57
2023-05-04T02:37:20.262Z,8.80
2023-05-04T02:39:46.793Z,8.10
2023-05-04T02:42:13.916Z,8.40
2023-05-04T02:44:40.475Z,9.00
2023-05-04T02:47:06.976Z,8.48
2023-05-04T02:49:33.481Z,7.88
2023-05-04T02:52:00.211Z,8.77
2023-05-04T02:54:26.796Z,7.93
2023-05-04T02:56:53.407Z,8.75
2023-05-04T02:59:19.980Z,7.97
2023-05-04T03:01:46.709Z,8.07
2023-05-04T03:04:13.311Z,8.43
2023-05-04T03:06:39.832Z,8.18
2023-05-04T03:09:06.694Z,8.52
2023-05-04T03:11:33.224Z,8.65
2023-05-04T03:13:59.716Z,8.73
2023-05-04T03:16:26.222Z,7.63
2023-05-04T03:18:52.746Z,8.40
2023-05-04T03:21:19.397Z,9.00
2023-05-04T03:23:46.089Z,8.27
2023-05-04T03:26:12.593Z,8.15
2023-05-04T03:28:39.107Z,7.72
2023-05-04T03:31:05.651Z,8.13
2023-05-04T03:33:32.345Z,7.68
2023-05-04T03:35:58.865Z,10.30
2023-05-04T03:38:26.052Z,8.40
2023-05-04T03:40:52.765Z,8.68
2023-05-04T03:43:19.268Z,8.68
2023-05-04T03:45:46.131Z,8.68
2023-05-04T03:48:12.824Z,7.95
2023-05-04T03:50:39.504Z,7.85
2023-05-04T03:53:06.177Z,8.50
2023-05-04T03:55:32.890Z,8.52
2023-05-04T03:57:59.407Z,8.30
2023-05-04T04:00:26.225Z,8.35
2023-05-04T04:02:52.779Z,8.38
2023-05-04T04:05:19.484Z,7.88
2023-05-04T04:07:46.312Z,8.50
2023-05-04T04:10:12.823Z,7.70
2023-05-04T04:12:39.357Z,8.05
2023-05-04T04:15:06.460Z,7.53
2023-05-04T04:17:33.330Z,8.02
2023-05-04T04:19:59.817Z,8.48
2023-05-04T04:22:26.396Z,8.63
2023-05-04T04:24:52.953Z,7.82
2023-05-04T04:27:19.505Z,8.45
2023-05-04T04:29:46.156Z,7.72
2023-05-04T04:32:13.385Z,7.53
2023-05-04T04:34:40.729Z,8.23
2023-05-04T04:37:07.424Z,8.88
2023-05-04T04:39:34.037Z,8.43
2023-05-04T04:42:00.621Z,7.85
2023-05-04T04:44:27.121Z,8.75
2023-05-04T04:46:53.637Z,7.88
2023-05-04T04:49:20.148Z,7.80
2023-05-04T04:51:48.764Z,7.43
2023-05-04T04:54:15.238Z,8.10
2023-05-04T04:56:41.977Z,7.63
2023-05-04T04:59:08.516Z,7.63
2023-05-04T05:01:35.206Z,7.93
2023-05-04T05:04:01.758Z,8.25
2023-05-04T05:06:28.300Z,7.13
2023-05-04T05:08:54.892Z,7.47
2023-05-04T05:11:21.409Z,7.95
2023-05-04T05:13:47.911Z,7.38
2023-05-04T05:16:14.452Z,8.52
2023-05-04T05:18:41.095Z,7.43
2023-05-04T05:21:07.702Z,7.47
2023-05-04T05:23:35.650Z,7.50
2023-05-04T05:26:03.373Z,7.55
2023-05-04T05:28:30.410Z,7.43
2023-05-04T05:30:56.958Z,7.43
2023-05-04T05:33:23.921Z,8.57
2023-05-04T05:35:50.441Z,7.28
2023-05-04T05:38:18.405Z,7.25
2023-05-04T05:40:44.963Z,7.28
2023-05-04T05:43:11.740Z,7.82
2023-05-04T05:45:38.329Z,7.53
2023-05-04T05:48:05.726Z,6.70
2023-05-04T05:50:32.254Z,7.20
2023-05-04T05:52:58.733Z,7.40
2023-05-04T05:55:25.262Z,7.07
2023-05-04T05:57:52.155Z,6.97
2023-05-04T06:00:18.864Z,6.82
2023-05-04T06:02:45.682Z,7.38
2023-05-04T06:05:12.787Z,6.95
2023-05-04T06:07:39.361Z,7.60
2023-05-04T06:10:06.445Z,7.55
2023-05-04T06:12:33.366Z,8.48
2023-05-04T06:14:59.989Z,7.53
2023-05-04T06:17:26.542Z,7.35
2023-05-04T06:19:53.107Z,7.30
2023-05-04T06:22:19.662Z,7.72
2023-05-04T06:24:46.604Z,7.53
2023-05-04T06:27:13.323Z,7.85
2023-05-04T06:29:41.271Z,7.57
2023-05-04T06:32:09.905Z,6.90
2023-05-04T06:34:36.660Z,6.55
2023-05-04T06:37:03.455Z,7.35
2023-05-04T06:39:29.995Z,7.07
2023-05-04T06:41:57.137Z,6.82
2023-05-04T06:44:23.772Z,7.28
2023-05-04T06:46:50.428Z,7.45
2023-05-04T06:49:18.132Z,7.72
2023-05-04T06:51:44.797Z,6.68
2023-05-04T06:54:12.485Z,7.32
2023-05-04T06:56:39.774Z,6.93
2023-05-04T06:59:07.123Z,7.43
2023-05-04T07:01:33.713Z,6.53
2023-05-04T07:04:00.423Z,6.57
2023-05-04T07:06:27.317Z,6.93
2023-05-04T07:08:53.895Z,7.55
2023-05-04T07:11:20.583Z,6.60
2023-05-04T07:13:47.146Z,7.15
2023-05-04T07:16:13.719Z,6.03
2023-05-04T07:18:40.478Z,7.10
2023-05-04T07:21:26.934Z,6.75
2023-05-04T07:23:55.249Z,6.38
2023-05-04T07:26:22.674Z,7.10
2023-05-04T07:28:49.220Z,6.78
2023-05-04T07:31:16.011Z,6.55
2023-05-04T07:33:42.804Z,6.68
2023-05-04T07:36:09.633Z,7.00
2023-05-04T07:38:36.714Z,6.57
2023-05-04T07:41:03.253Z,7.05
2023-05-04T07:43:29.759Z,6.68
2023-05-04T07:45:56.610Z,6.22
2023-05-04T07:48:25.441Z,6.20
2023-05-04T07:50:53.728Z,6.47
2023-05-04T07:53:25.577Z,6.30
2023-05-04T07:55:54.260Z,7.13
2023-05-04T07:58:20.831Z,7.65
2023-05-04T08:00:47.430Z,6.80
2023-05-04T08:03:13.966Z,6.82
2023-05-04T08:05:40.673Z,5.75
2023-05-04T08:08:08.729Z,6.18
2023-05-04T08:10:39.047Z,6.28
2023-05-04T08:13:05.854Z,6.57
2023-05-04T08:15:32.467Z,6.65
2023-05-04T08:17:59.252Z,6.72
2023-05-04T08:20:25.913Z,7.22
2023-05-04T08:22:52.646Z,6.13
2023-05-04T08:25:19.295Z,6.82
2023-05-04T08:27:45.908Z,5.80
2023-05-04T08:30:12.809Z,6.22
2023-05-04T08:32:40.041Z,6.15
2023-05-04T08:35:06.886Z,6.72
2023-05-04T08:37:34.070Z,5.85
2023-05-04T08:40:00.651Z,6.20
2023-05-04T08:42:31.224Z,6.65
2023-05-04T08:44:58.785Z,5.95
2023-05-04T08:47:26.849Z,5.90
2023-05-04T08:52:24.680Z,6.00
2023-05-04T08:54:56.172Z,5.93
2023-05-04T08:57:24.060Z,5.65
2023-05-04T08:59:55.358Z,6.30
2023-05-04T09:02:23.541Z,6.38
2023-05-04T09:04:51.628Z,6.35
2023-05-04T09:09:45.465Z,5.45
2023-05-04T09:12:12.579Z,5.35
2023-05-04T09:14:41.350Z,6.07
2023-05-04T09:17:17.934Z,5.85
2023-05-04T09:19:44.691Z,5.75
2023-05-04T09:22:17.993Z,5.93
2023-05-04T09:24:46.377Z,5.80
2023-05-04T09:27:13.923Z,5.72
2023-05-04T09:29:42.440Z,6.22
2023-05-04T09:32:12.502Z,5.72
2023-05-04T09:34:49.530Z,5.82
2023-05-04T09:37:16.117Z,6.13
2023-05-04T09:39:53.711Z,5.97
2023-05-04T09:42:21.398Z,5.93
2023-05-04T09:45:07.959Z,6.57
2023-05-04T09:47:38.886Z,5.82
2023-05-04T09:50:20.737Z,5.70
2023-05-04T09:52:48.924Z,5.85
2023-05-04T09:55:17.789Z,5.85
2023-05-04T09:57:45.868Z,5.78
2023-05-04T10:00:14.193Z,5.75
2023-05-04T10:02:41.162Z,6.05
2023-05-04T10:05:09.504Z,6.65
2023-05-04T10:07:36.585Z,6.25
2023-05-04T10:10:03.655Z,6.13
2023-05-04T10:12:31.000Z,6.60
2023-05-04T10:14:57.912Z,5.80
2023-05-04T10:17:46.201Z,6.45
2023-05-04T10:20:28.506Z,6.22
2023-05-04T10:23:00.169Z,6.35
2023-05-04T10:25:41.901Z,6.00
2023-05-04T10:28:27.261Z,6.30
2023-05-04T10:31:00.314Z,6.47
2023-05-04T10:33:27.192Z,6.10
2023-05-04T10:35:54.453Z,6.15
2023-05-04T10:38:35.432Z,5.95
2023-05-04T10:41:13.663Z,5.80
2023-05-04T10:43:40.187Z,6.25
2023-05-04T10:46:17.308Z,6.47
2023-05-04T10:48:43.868Z,6.10
2023-05-04T10:51:21.210Z,6.57
2023-05-04T10:53:48.064Z,8.13
2023-05-04T10:56:25.181Z,6.63
2023-05-04T10:58:52.503Z,6.53
2023-05-04T11:01:19.762Z,8.23
2023-05-04T11:03:47.048Z,6.15
2023-05-04T11:06:24.090Z,6.45
2023-05-04T11:09:01.887Z,6.95
2023-05-04T11:11:28.772Z,6.78
2023-05-04T11:13:55.494Z,6.82
2023-05-04T11:16:27.039Z,7.35
2023-05-04T11:18:54.513Z,6.88
2023-05-04T11:21:25.706Z,8.18
2023-05-04T11:23:59.304Z,6.80
2023-05-04T11:26:26.299Z,6.70
2023-05-04T11:28:52.821Z,7.55
2023-05-04T11:31:20.952Z,7.47
2023-05-04T11:33:55.066Z,8.30
2023-05-04T11:38:51.149Z,7.82
2023-05-04T11:41:17.677Z,6.90
2023-05-04T11:43:45.188Z,6.20
2023-05-04T11:46:12.812Z,6.82
2023-05-04T11:51:07.013Z,8.38
2023-05-04T11:53:38.411Z,6.97
2023-05-04T11:56:06.556Z,7.35
2023-05-04T11:58:33.141Z,7.07
2023-05-04T12:00:59.926Z,6.68
2023-05-04T12:03:44.035Z,6.75
2023-05-04T12:06:15.163Z,7.18
2023-05-04T12:08:44.475Z,7.28
2023-05-04T12:11:25.364Z,7.90
2023-05-04T12:14:10.246Z,7.80
2023-05-04T12:16:38.213Z,7.50
2023-05-04T12:19:13.938Z,6.80
2023-05-04T12:21:51.868Z,7.70
2023-05-04T12:24:21.769Z,7.60
2023-05-04T12:26:48.489Z,6.32
2023-05-04T12:29:15.224Z,7.55
2023-05-04T12:31:41.789Z,6.75
2023-05-04T12:34:08.313Z,6.55
2023-05-04T12:36:35.086Z,6.88
2023-05-04T12:39:02.039Z,7.38
2023-05-04T12:41:28.569Z,7.63
2023-05-04T12:43:55.145Z,6.95
2023-05-04T12:46:22.712Z,6.65
2023-05-04T12:51:15.890Z,7.20
2023-05-04T12:53:43.515Z,7.75
2023-05-04T12:56:10.051Z,8.73
2023-05-04T12:58:36.604Z,8.77
2023-05-04T13:01:04.364Z,8.73
2023-05-04T13:03:31.040Z,9.30
2023-05-04T13:05:58.066Z,10.27
2023-05-04T13:08:24.929Z,11.02
2023-05-04T13:10:52.181Z,9.00
2023-05-04T13:13:19.287Z,9.73
2023-05-04T13:15:50.115Z,10.30
2023-05-04T13:18:16.821Z,10.00
2023-05-04T13:20:43.437Z,10.50
2023-05-04T13:23:09.982Z,10.68
2023-05-04T13:25:36.536Z,10.45
2023-05-04T13:28:03.464Z,10.27
2023-05-04T13:30:30.010Z,12.88
2023-05-04T13:32:56.625Z,12.63
2023-05-04T13:35:23.906Z,11.18
2023-05-04T13:37:50.919Z,12.82
2023-05-04T13:40:17.528Z,12.38
2023-05-04T13:42:44.592Z,12.10
2023-05-04T13:45:11.641Z,12.07
2023-05-04T13:47:38.282Z,12.20
2023-05-04T13:50:05.264Z,13.45
2023-05-04T13:52:32.370Z,12.90
2023-05-04T13:54:59.438Z,11.85
2023-05-04T13:57:27.845Z,10.98
2023-05-04T14:00:06.419Z,10.63
2023-05-04T14:02:33.958Z,11.20
2023-05-04T14:05:01.419Z,10.38
2023-05-04T14:07:28.116Z,9.75
2023-05-04T14:09:55.988Z,9.05
2023-05-04T14:12:22.863Z,9.15
2023-05-04T14:14:50.754Z,8.88
2023-05-04T14:17:17.683Z,9.93
2023-05-04T14:19:44.796Z,9.18
2023-05-04T14:22:11.372Z,8.95
2023-05-04T14:24:37.937Z,9.80
2023-05-04T14:27:04.476Z,7.70
2023-05-04T14:29:32.310Z,8.48
2023-05-04T14:31:58.989Z,8.35
2023-05-04T14:34:25.663Z,8.98
2023-05-04T14:36:53.181Z,9.02
2023-05-04T14:39:20.029Z,8.65
2023-05-04T14:41:46.564Z,8.18
2023-05-04T14:44:13.249Z,9.07
2023-05-04T14:46:39.793Z,7.95
2023-05-04T14:49:07.335Z,8.02
2023-05-04T14:54:00.713Z,7.25
2023-05-04T14:56:27.566Z,8.57
2023-05-04T14:58:54.160Z,7.95
2023-05-04T15:01:20.858Z,7.28
2023-05-04T15:03:48.164Z,6.40
2023-05-04T15:06:14.719Z,6.47
2023-05-04T15:08:41.357Z,7.60
2023-05-04T15:11:07.885Z,7.65
2023-05-04T15:13:34.451Z,7.15
2023-05-04T15:16:01.102Z,7.15
2023-05-04T15:18:27.760Z,7.40
2023-05-04T15:20:54.445Z,8.13
2023-05-04T15:23:21.251Z,7.93
2023-05-04T15:25:47.841Z,8.48
2023-05-04T15:28:14.516Z,7.82
2023-05-04T15:30:41.913Z,8.23
2023-05-04T15:33:08.747Z,6.93
2023-05-04T15:35:36.471Z,7.60
2023-05-04T15:40:29.905Z,7.50
2023-05-04T15:42:56.471Z,8.30
2023-05-04T15:45:23.100Z,7.53
2023-05-04T15:47:49.733Z,7.05
2023-05-04T15:50:16.322Z,7.85
2023-05-04T15:52:43.035Z,7.82
2023-05-04T15:55:24.336Z,8.23
2023-05-04T15:57:52.613Z,8.80
2023-05-04T16:00:19.708Z,7.78
2023-05-04T16:02:46.464Z,9.02
2023-05-04T16:05:13.157Z,8.57
2023-05-04T16:07:39.715Z,8.27
2023-05-04T16:10:07.113Z,7.93
2023-05-04T16:12:33.804Z,8.85
2023-05-04T16:15:00.489Z,8.45
2023-05-04T16:17:29.198Z,8.68
2023-05-04T16:19:56.120Z,8.65
2023-05-04T16:22:22.775Z,9.70
2023-05-04T16:24:49.295Z,8.27
2023-05-04T16:27:16.369Z,7.53
2023-05-04T16:29:42.956Z,7.95
2023-05-04T16:32:09.517Z,7.70
2023-05-04T16:34:36.140Z,7.72
2023-05-04T16:37:02.748Z,8.05
2023-05-04T16:39:31.461Z,6.63
2023-05-04T16:41:58.516Z,6.72
2023-05-04T16:44:25.450Z,7.10
2023-05-04T16:46:54.047Z,6.68
2023-05-04T16:49:23.434Z,7.88
2023-05-04T16:51:50.082Z,7.03
2023-05-04T16:54:16.807Z,6.75
2023-05-04T16:56:43.407Z,6.60
2023-05-04T16:59:09.972Z,6.55
2023-05-04T17:01:36.594Z,5.97
2023-05-04T17:04:03.193Z,7.40
2023-05-04T17:06:30.048Z,6.32
2023-05-04T17:08:56.657Z,6.18
2023-05-04T17:11:23.985Z,5.50
2023-05-04T17:13:51.087Z,5.85
2023-05-04T17:16:17.809Z,5.72
2023-05-04T17:18:45.790Z,6.78
2023-05-04T17:21:12.323Z,5.80
2023-05-04T17:23:38.837Z,6.40
2023-05-04T17:26:06.316Z,5.97
2023-05-04T17:28:32.866Z,5.85
2023-05-04T17:30:59.516Z,6.60
2023-05-04T17:33:26.158Z,6.35
2023-05-04T17:35:52.688Z,5.40
2023-05-04T17:38:19.240Z,5.75
2023-05-04T17:40:45.787Z,5.13
2023-05-04T17:43:12.326Z,5.00
2023-05-04T17:45:38.947Z,5.65
2023-05-04T17:48:05.971Z,5.00
2023-05-04T17:50:32.581Z,4.82
2023-05-04T17:52:59.085Z,5.90
2023-05-04T17:55:25.714Z,4.32
2023-05-04T17:57:54.121Z,4.65
2023-05-04T18:00:21.135Z,4.53
2023-05-04T18:02:47.815Z,4.20
2023-05-04T18:05:14.419Z,4.38
2023-05-04T18:07:41.174Z,4.13
2023-05-04T18:10:08.108Z,5.05
2023-05-04T18:12:35.671Z,4.40
2023-05-04T18:15:08.183Z,4.75
2023-05-04T18:17:35.922Z,5.18
2023-05-04T18:20:02.536Z,6.07
2023-05-04T18:22:29.140Z,4.45
2023-05-04T18:24:55.699Z,4.82
2023-05-04T18:27:22.257Z,4.70
2023-05-04T18:29:48.820Z,5.38
2023-05-04T18:32:15.381Z,5.30
2023-05-04T18:34:42.090Z,4.57
2023-05-04T18:37:08.643Z,5.25
2023-05-04T18:39:35.326Z,5.55
2023-05-04T18:42:01.962Z,5.22
2023-05-04T18:44:28.482Z,5.35
2023-05-04T18:46:55.112Z,5.22
2023-05-04T18:49:21.639Z,4.60
2023-05-04T18:51:48.226Z,4.88
2023-05-04T18:54:16.146Z,5.35
2023-05-04T18:59:10.718Z,5.57
2023-05-04T19:04:04.965Z,5.30
2023-05-04T19:06:32.542Z,5.40
2023-05-04T19:08:59.532Z,5.82
2023-05-04T19:11:26.582Z,5.80
2023-05-04T19:13:53.350Z,6.00
2023-05-04T19:16:20.038Z,6.00
2023-05-04T19:18:46.749Z,6.05
2023-05-04T19:21:13.316Z,6.30
2023-05-04T19:23:40.124Z,6.72
2023-05-04T19:26:06.675Z,5.95
2023-05-04T19:28:33.197Z,6.25
2023-05-04T19:30:59.813Z,6.45
2023-05-04T19:33:36.368Z,6.65
2023-05-04T19:36:11.515Z,6.72
2023-05-04T19:38:38.064Z,6.05
2023-05-04T19:41:04.696Z,6.68
2023-05-04T19:43:32.840Z,6.35
2023-05-04T19:45:59.357Z,6.35
2023-05-04T19:48:25.912Z,5.97
2023-05-04T19:50:52.442Z,6.35
2023-05-04T19:53:18.939Z,6.47
2023-05-04T19:55:45.511Z,6.38
2023-05-04T19:58:12.066Z,6.68
2023-05-04T20:00:38.689Z,6.30
2023-05-04T20:03:05.417Z,6.72
2023-05-04T20:05:31.958Z,7.00
2023-05-04T20:07:58.488Z,7.38
2023-05-04T20:10:25.411Z,7.32
2023-05-04T20:12:51.995Z,8.35
2023-05-04T20:15:18.577Z,8.57
2023-05-04T20:17:45.086Z,9.70
2023-05-04T20:20:12.215Z,9.60
2023-05-04T20:22:38.701Z,9.93
2023-05-04T20:25:05.543Z,10.98
2023-05-04T20:27:32.047Z,11.02
2023-05-04T20:29:58.925Z,10.43
2023-05-04T20:32:25.630Z,10.63
2023-05-04T20:34:52.394Z,11.10
2023-05-04T20:37:18.977Z,9.82
2023-05-04T20:39:45.512Z,11.45
2023-05-04T20:42:12.690Z,10.95
2023-05-04T20:44:39.180Z,11.75
2023-05-04T20:47:05.782Z,10.65
2023-05-04T20:49:32.474Z,11.57
2023-05-04T20:51:59.009Z,10.73
2023-05-04T20:54:25.615Z,10.32
2023-05-04T20:56:52.191Z,10.65
2023-05-04T20:59:18.793Z,11.35
2023-05-04T21:01:45.328Z,10.48
2023-05-04T21:04:11.898Z,11.05
2023-05-04T21:06:38.403Z,11.18
2023-05-04T21:09:04.977Z,11.60
2023-05-04T21:11:31.483Z,10.18
2023-05-04T21:13:58.092Z,11.60
2023-05-04T21:16:24.713Z,9.57
2023-05-04T21:18:51.352Z,9.00
2023-05-04T21:21:17.939Z,8.75
2023-05-04T21:23:44.486Z,9.10
2023-05-04T21:26:11.567Z,9.45
2023-05-04T21:28:38.070Z,9.10
2023-05-04T21:31:08.455Z,8.70
2023-05-04T21:33:36.115Z,9.07
2023-05-04T21:36:15.096Z,8.85
2023-05-04T21:38:42.140Z,8.32
2023-05-04T21:41:15.274Z,9.10
2023-05-04T21:43:42.660Z,9.60
2023-05-04T21:46:09.286Z,9.50
2023-05-04T21:48:35.908Z,9.05
2023-05-04T21:51:02.645Z,9.85
2023-05-04T21:53:33.295Z,9.48
2023-05-04T21:56:07.701Z,8.70
2023-05-04T22:01:01.152Z,7.68
2023-05-04T22:03:28.695Z,7.18
2023-05-04T22:05:57.687Z,7.68
2023-05-04T22:08:25.053Z,7.00
2023-05-04T22:10:52.654Z,7.45
2023-05-04T22:13:19.397Z,7.20
2023-05-04T22:15:49.932Z,7.03
2023-05-04T22:18:17.227Z,7.32
2023-05-04T22:20:43.754Z,7.15
2023-05-04T22:23:10.573Z,7.32
2023-05-04T22:25:37.096Z,8.15
2023-05-04T22:28:03.960Z,7.65
2023-05-04T22:30:30.515Z,7.40
2023-05-04T22:32:57.222Z,8.07
2023-05-04T22:35:23.971Z,7.78
2023-05-04T22:37:50.786Z,7.80
2023-05-04T22:40:17.473Z,9.25
2023-05-04T22:42:46.936Z,7.95
2023-05-04T22:45:14.445Z,7.88
2023-05-04T22:47:41.905Z,9.10
2023-05-04T22:50:09.532Z,8.98
2023-05-04T22:52:36.710Z,8.98
2023-05-04T22:55:04.027Z,8.63
2023-05-04T22:57:30.599Z,9.25
2023-05-04T22:59:57.139Z,9.55
2023-05-04T23:02:23.875Z,10.05
2023-05-04T23:04:50.600Z,8.43
2023-05-04T23:07:17.096Z,8.93
2023-05-04T23:09:45.197Z,8.82
2023-05-04T23:12:12.802Z,8.88
2023-05-04T23:14:39.370Z,8.80
2023-05-04T23:17:05.932Z,10.93
2023-05-04T23:19:32.674Z,12.35
2023-05-04T23:21:59.453Z,11.75
2023-05-04T23:24:26.296Z,12.48
2023-05-04T23:26:52.889Z,11.57
2023-05-04T23:29:19.813Z,12.02
2023-05-04T23:31:46.376Z,6.80
2023-05-04T23:34:13.527Z,5.40
2023-05-04T23:36:40.224Z,3.58
2023-05-04T23:39:06.920Z,3.03
2023-05-04T23:41:33.558Z,2.80
2023-05-04T23:44:00.408Z,2.75
2023-05-04T23:46:26.989Z,1.63
2023-05-04T23:48:53.525Z,1.60
2023-05-04T23:51:21.182Z,1.45
2023-05-04T23:53:47.734Z,1.23
2023-05-04T23:56:14.530Z,1.27
2023-05-04T23:58:41.930Z,1.48
